createdAt,value
2022-10-18T00:00:33.978Z,99690.78
2022-10-18T00:01:33.981Z,99692.08
2022-10-18T00:02:34.214Z,99688.21
2022-10-18T00:03:34.592Z,99687.27
2022-10-18T00:04:34.111Z,99685.14
2022-10-18T00:05:34.029Z,99679.59
2022-10-18T00:06:34.440Z,99673.2
2022-10-18T00:07:34.187Z,99668.18
2022-10-18T00:08:34.287Z,99664.23
2022-10-18T00:09:34.090Z,99658.38
2022-10-18T00:10:34.149Z,99653.39
2022-10-18T00:11:34.681Z,99645.67
2022-10-18T00:12:34.901Z,99629.62
2022-10-18T00:13:34.338Z,99628.62
2022-10-18T00:14:34.188Z,99626.19
2022-10-18T00:15:34.260Z,99619.22
2022-10-18T00:16:34.257Z,99624.09
2022-10-18T00:17:35.284Z,99622.39
2022-10-18T00:18:34.271Z,99626.66
2022-10-18T00:19:34.302Z,99619.81
2022-10-18T00:20:34.800Z,99614.61
2022-10-18T00:21:35.090Z,99612.3
2022-10-18T00:22:36.298Z,99602.62
2022-10-18T00:23:35.613Z,99606.16
2022-10-18T00:24:35.255Z,99602.48
2022-10-18T00:25:34.862Z,99599.65
2022-10-18T00:26:35.033Z,99594.02
2022-10-18T00:27:35.240Z,99602.81
2022-10-18T00:28:35.871Z,99607.97
2022-10-18T00:29:35.137Z,99608.41
2022-10-18T00:30:34.898Z,99609.14
2022-10-18T00:31:36.289Z,99604.8
2022-10-18T00:32:38.178Z,99605.01
2022-10-18T00:33:34.953Z,99599.78
2022-10-18T00:34:35.073Z,99595.57
2022-10-18T00:35:34.988Z,99585.77
2022-10-18T00:36:35.095Z,99580.22
2022-10-18T00:37:35.290Z,99572.86
2022-10-18T00:38:35.441Z,99568.52
2022-10-18T00:39:35.364Z,99562.28
2022-10-18T00:40:35.070Z,99548.52
2022-10-18T00:41:35.939Z,99544.52
2022-10-18T00:42:36.277Z,99545.89
2022-10-18T00:45:37.129Z,99548.58
2022-10-18T00:46:41.490Z,99554.7
2022-10-18T00:47:38.170Z,99564.97
2022-10-18T00:48:37.938Z,99574.97
2022-10-18T00:50:40.119Z,99561.46
2022-10-18T00:52:48.009Z,99500.38
2022-10-18T00:53:44.933Z,99487.5
2022-10-18T00:54:45.941Z,99480.44
2022-10-18T00:55:44.770Z,99473.3
2022-10-18T00:56:45.268Z,99467.92
2022-10-18T00:57:45.115Z,99464.44
2022-10-18T00:58:46.086Z,99456.73
2022-10-18T00:59:45.900Z,99445.77
2022-10-18T01:00:44.907Z,99450.84
2022-10-18T01:01:44.955Z,99455.67
2022-10-18T01:02:45.702Z,99461.3
2022-10-18T01:03:44.706Z,99457.84
2022-10-18T01:04:48.095Z,99455.52
2022-10-18T01:05:46.256Z,99452.02
2022-10-18T01:09:02.242Z,99442.48
2022-10-18T01:10:01.220Z,99435.76
2022-10-18T01:22:31.413Z,99375.47
2022-10-18T01:30:50.077Z,99349.45
2022-10-18T01:31:49.505Z,99345.75
2022-10-18T01:32:48.641Z,99341.39
2022-10-18T01:33:53.033Z,99340.35
2022-10-18T01:34:51.029Z,99329.12
2022-10-18T01:36:53.034Z,99305.5
2022-10-18T01:37:50.673Z,99300.31
2022-10-18T01:38:52.055Z,99291.39
2022-10-18T01:39:52.097Z,99296.87
2022-10-18T01:40:51.100Z,99292.12
2022-10-18T01:41:51.420Z,99292.03
2022-10-18T01:42:50.933Z,99289.64
2022-10-18T01:43:52.405Z,99279.17
2022-10-18T01:44:51.848Z,99273.28
2022-10-18T01:45:52.051Z,99271.92
2022-10-18T01:46:51.954Z,99263.5
2022-10-18T01:47:51.104Z,99259.83
2022-10-18T01:48:51.313Z,99255.22
2022-10-18T01:49:56.296Z,99250.28
2022-10-18T01:50:53.099Z,99243.2
2022-10-18T01:51:53.196Z,99242.94
2022-10-18T01:52:52.983Z,99239.23
2022-10-18T01:53:53.154Z,99240.4
2022-10-18T01:54:54.753Z,99235.62
2022-10-18T01:55:56.739Z,99233.89
2022-10-18T02:00:13.238Z,99217.92
2022-10-18T02:03:21.427Z,99233.89
2022-10-18T02:09:33.365Z,99226.58
2022-10-18T02:11:32.981Z,99219.26
2022-10-18T02:12:33.812Z,99216.55
2022-10-18T02:14:36.582Z,99213.33
2022-10-18T02:15:39.141Z,99214.38
2022-10-18T02:16:41.446Z,99210.34
2022-10-18T02:17:39.558Z,99214.66
2022-10-18T02:18:42.347Z,99214.53
2022-10-18T02:19:43.532Z,99206.3
2022-10-18T02:20:41.134Z,99206.86
2022-10-18T02:21:41.944Z,99203.07
2022-10-18T02:22:42.095Z,99197.59
2022-10-18T02:23:40.251Z,99194.68
2022-10-18T02:24:45.887Z,99190.93
2022-10-18T02:25:42.553Z,99187.75
2022-10-18T02:26:42.810Z,99188.88
2022-10-18T02:27:42.798Z,99184.69
2022-10-18T02:28:43.031Z,99181.95
2022-10-18T02:29:43.053Z,99176.7
2022-10-18T02:30:48.284Z,99174.85
2022-10-18T02:31:49.254Z,99174.64
2022-10-18T02:32:52.505Z,99171.6
2022-10-18T02:35:56.936Z,99186
2022-10-18T02:36:54.921Z,99185.09
2022-10-18T02:37:54.343Z,99182.8
2022-10-18T02:38:56.546Z,99187.83
2022-10-18T02:39:53.605Z,99184.91
2022-10-18T02:40:53.597Z,99183.72
2022-10-18T02:41:54.815Z,99182.95
2022-10-18T02:42:54.733Z,99178.27
2022-10-18T02:43:53.905Z,99175.12
2022-10-18T02:44:53.670Z,99178.3
2022-10-18T02:45:54.096Z,99179.91
2022-10-18T02:46:53.751Z,99177.73
2022-10-18T02:47:53.978Z,99173.98
2022-10-18T02:48:53.723Z,99175.09
2022-10-18T02:49:53.952Z,99164.21
2022-10-18T02:50:53.762Z,99165.73
2022-10-18T02:51:53.817Z,99157.62
2022-10-18T02:52:53.783Z,99152.11
2022-10-18T02:53:53.838Z,99152.33
2022-10-18T02:54:53.772Z,99152.97
2022-10-18T02:55:53.821Z,99139.33
2022-10-18T02:56:53.887Z,99133.91
2022-10-18T02:57:53.859Z,99127.95
2022-10-18T02:58:53.907Z,99123.69
2022-10-18T02:59:53.894Z,99122.38
2022-10-18T03:00:53.894Z,99115.81
2022-10-18T03:01:54.013Z,99113.7
2022-10-18T03:02:53.965Z,99103.65
2022-10-18T03:03:53.942Z,99102.34
2022-10-18T03:04:53.938Z,99101.16
2022-10-18T03:05:53.961Z,99103.84
2022-10-18T03:06:53.993Z,99100.22
2022-10-18T03:07:56.271Z,99103.57
2022-10-18T03:08:54.179Z,99106.18
2022-10-18T03:09:54.040Z,99106.64
2022-10-18T03:10:54.044Z,99107.38
2022-10-18T03:11:53.991Z,99106.62
2022-10-18T03:12:54.022Z,99105.24
2022-10-18T03:13:54.094Z,99099.72
2022-10-18T03:14:54.056Z,99097.88
2022-10-18T03:15:54.297Z,99091.04
2022-10-18T03:16:54.083Z,99088.84
2022-10-18T03:17:54.039Z,99090.47
2022-10-18T03:18:54.139Z,99083.6
2022-10-18T03:19:54.126Z,99082.56
2022-10-18T03:20:54.136Z,99088.72
2022-10-18T03:21:54.286Z,99083.27
2022-10-18T03:22:54.161Z,99077.8
2022-10-18T03:23:54.161Z,99082.53
2022-10-18T03:24:54.439Z,99082.97
2022-10-18T03:25:54.182Z,99086.27
2022-10-18T03:26:54.209Z,99087.35
2022-10-18T03:27:54.176Z,99081.5
2022-10-18T03:28:54.709Z,99076.68
2022-10-18T03:29:54.255Z,99067.28
2022-10-18T03:30:59.147Z,99065.75
2022-10-18T03:31:55.801Z,99068.26
2022-10-18T03:32:55.803Z,99067.7
2022-10-18T03:33:55.746Z,99065.82
2022-10-18T03:34:55.803Z,99061.91
2022-10-18T03:35:55.861Z,99063.32
2022-10-18T03:36:55.913Z,99064.76
2022-10-18T03:37:55.876Z,99069.23
2022-10-18T03:38:56.242Z,99075.26
2022-10-18T03:39:55.900Z,99078.41
2022-10-18T03:40:55.927Z,99070.47
2022-10-18T03:41:55.951Z,99057
2022-10-18T03:42:55.931Z,99058.3
2022-10-18T03:43:55.936Z,99057.66
2022-10-18T03:44:55.999Z,99053.81
2022-10-18T03:45:56.011Z,99057.28
2022-10-18T03:46:56.026Z,99058.8
2022-10-18T03:47:56.008Z,99060.78
2022-10-18T03:48:56.025Z,99054.56
2022-10-18T03:49:57.240Z,99051.22
2022-10-18T03:50:56.043Z,99045.53
2022-10-18T03:51:56.085Z,99040
2022-10-18T03:52:56.065Z,99040.67
2022-10-18T03:53:56.036Z,99042.77
2022-10-18T03:54:56.082Z,99041.8
2022-10-18T03:55:56.335Z,99038.45
2022-10-18T03:56:56.182Z,99034.92
2022-10-18T03:57:56.322Z,99039.77
2022-10-18T03:58:56.114Z,99031.91
2022-10-18T03:59:56.148Z,99038.55
2022-10-18T04:00:56.102Z,99038.98
2022-10-18T04:01:56.232Z,99036.98
2022-10-18T04:02:56.222Z,99039.45
2022-10-18T04:03:56.150Z,99039.89
2022-10-18T04:04:56.246Z,99038.55
2022-10-18T04:05:56.179Z,99040.32
2022-10-18T04:06:56.173Z,99033.36
2022-10-18T04:07:56.562Z,99038.09
2022-10-18T04:08:56.284Z,99032.22
2022-10-18T04:09:56.292Z,99035.36
2022-10-18T04:10:56.270Z,99028.67
2022-10-18T04:11:56.313Z,99027.49
2022-10-18T04:12:56.344Z,99024.89
2022-10-18T04:13:56.401Z,99021.89
2022-10-18T04:14:56.312Z,99022.46
2022-10-18T04:15:56.376Z,99017.03
2022-10-18T04:16:56.375Z,99016.32
2022-10-18T04:17:56.369Z,99016.84
2022-10-18T04:18:56.423Z,99012.56
2022-10-18T04:19:56.376Z,99012.34
2022-10-18T04:20:56.405Z,99018.68
2022-10-18T04:21:56.373Z,99014.27
2022-10-18T04:22:56.417Z,99014.48
2022-10-18T04:23:56.645Z,99012.59
2022-10-18T04:24:56.434Z,99022.06
2022-10-18T04:25:56.465Z,99022.44
2022-10-18T04:26:56.510Z,99018.92
2022-10-18T04:27:56.534Z,99019.98
2022-10-18T04:28:56.537Z,99015.78
2022-10-18T04:29:56.555Z,99015.87
2022-10-18T04:30:56.489Z,99012.44
2022-10-18T04:31:56.571Z,99010.66
2022-10-18T04:32:56.570Z,99011.43
2022-10-18T04:33:56.591Z,99005.02
2022-10-18T04:34:56.610Z,99005.34
2022-10-18T04:35:56.783Z,99008.88
2022-10-18T04:36:56.627Z,99008.62
2022-10-18T04:37:56.643Z,99008.33
2022-10-18T04:38:56.922Z,99003.22
2022-10-18T04:39:57.177Z,99007.31
2022-10-18T04:40:56.645Z,99007.68
2022-10-18T04:41:56.707Z,99007.26
2022-10-18T04:42:56.718Z,99007.84
2022-10-18T04:43:56.853Z,99004.16
2022-10-18T04:44:56.793Z,99002.08
2022-10-18T04:45:56.818Z,98993.98
2022-10-18T04:46:56.986Z,98996.41
2022-10-18T04:47:56.801Z,98997.45
2022-10-18T04:48:56.861Z,98997.98
2022-10-18T04:49:56.836Z,98992.06
2022-10-18T04:50:56.864Z,98991.09
2022-10-18T04:51:56.888Z,98993.91
2022-10-18T04:52:56.830Z,98991.25
2022-10-18T04:53:57.024Z,98990.7
2022-10-18T04:54:56.846Z,98990.18
2022-10-18T04:55:57.063Z,98985.55
2022-10-18T04:56:57.115Z,98992.1
2022-10-18T04:57:56.887Z,98987.36
2022-10-18T04:58:57.741Z,98982.39
2022-10-18T04:59:56.901Z,98989.34
2022-10-18T05:00:57.025Z,98988.3
2022-10-18T05:01:57.144Z,98989.28
2022-10-18T05:02:57.787Z,98993
2022-10-18T05:03:56.997Z,98990.52
2022-10-18T05:04:56.971Z,98990.38
2022-10-18T05:06:01.875Z,98989.98
2022-10-18T05:06:59.558Z,98994.76
2022-10-18T05:07:59.754Z,98994.78
2022-10-18T05:08:59.587Z,98996.62
2022-10-18T05:09:59.576Z,99002.03
2022-10-18T05:11:01.351Z,99001.21
2022-10-18T05:11:59.647Z,99002.95
2022-10-18T05:12:59.655Z,99001.98
2022-10-18T05:13:59.864Z,99005.42
2022-10-18T05:14:59.913Z,99001.11
2022-10-18T05:15:59.726Z,99006.81
2022-10-18T05:16:59.729Z,99005.29
2022-10-18T05:17:59.743Z,99003.3
2022-10-18T05:18:59.670Z,99011.92
2022-10-18T05:19:59.770Z,99010.52
2022-10-18T05:20:59.757Z,99014.14
2022-10-18T05:21:59.753Z,99006.19
2022-10-18T05:22:59.844Z,99007.1
2022-10-18T05:23:59.972Z,99007.36
2022-10-18T05:25:00.073Z,99002.27
2022-10-18T05:26:03.682Z,99008.88
2022-10-18T05:27:00.550Z,99013.88
2022-10-18T05:28:06.256Z,99019.95
2022-10-18T05:29:03.417Z,99022.05
2022-10-18T05:30:05.680Z,99016.23
2022-10-18T05:31:03.606Z,99019.45
2022-10-18T05:32:03.023Z,99019.3
2022-10-18T05:33:02.933Z,99025.19
2022-10-18T05:34:03.118Z,99023.42
2022-10-18T05:35:02.736Z,99017.59
2022-10-18T05:36:03.033Z,99011.23
2022-10-18T05:37:02.767Z,99016.36
2022-10-18T05:38:06.027Z,99021.56
2022-10-18T05:39:04.943Z,99024.2
2022-10-18T05:40:03.294Z,99027.38
2022-10-18T05:41:04.089Z,99038.94
2022-10-18T05:42:03.176Z,99026.36
2022-10-18T05:43:03.217Z,99026.51
2022-10-18T05:44:03.979Z,99024.41
2022-10-18T05:45:03.293Z,99023.65
2022-10-18T05:46:03.088Z,99028.59
2022-10-18T05:47:02.906Z,99016.84
2022-10-18T05:48:02.973Z,99026.21
2022-10-18T05:49:02.982Z,99028.33
2022-10-18T05:50:03.608Z,99011.67
2022-10-18T05:51:03.039Z,99014.18
2022-10-18T05:52:03.038Z,99025.52
2022-10-18T05:53:12.104Z,99020.05
2022-10-18T05:54:04.320Z,99023.06
2022-10-18T05:55:04.945Z,99028.48
2022-10-18T05:56:04.991Z,99032.34
2022-10-18T05:57:04.358Z,99035.84
2022-10-18T05:58:04.443Z,99041.22
2022-10-18T05:59:04.964Z,99039.58
2022-10-18T06:00:05.476Z,99045.06
2022-10-18T06:01:05.425Z,99036.8
2022-10-18T06:02:04.938Z,99043.17
2022-10-18T06:03:04.962Z,99050.88
2022-10-18T06:04:05.427Z,99044.53
2022-10-18T06:05:05.224Z,99038
2022-10-18T06:06:06.515Z,99047.62
2022-10-18T06:07:08.263Z,99043.36
2022-10-18T06:08:07.941Z,99047.48
2022-10-18T06:09:07.559Z,99039.41
2022-10-18T06:10:07.502Z,99045.69
2022-10-18T06:11:14.140Z,99045.39
2022-10-18T06:12:10.766Z,99044.38
2022-10-18T06:13:11.070Z,99054.37
2022-10-18T06:14:10.792Z,99058.05
2022-10-18T06:15:10.867Z,99058.95
2022-10-18T06:16:11.379Z,99046.09
2022-10-18T06:17:10.859Z,99056.33
2022-10-18T06:18:10.859Z,99050.03
2022-10-18T06:19:10.914Z,99053.77
2022-10-18T06:20:10.991Z,99051.88
2022-10-18T06:21:10.924Z,99059.16
2022-10-18T06:22:11.448Z,99058.12
2022-10-18T06:23:10.952Z,99053.36
2022-10-18T06:24:10.921Z,99067
2022-10-18T06:25:11.022Z,99056.12
2022-10-18T06:26:11.268Z,99065.72
2022-10-18T06:27:10.962Z,99064.39
2022-10-18T06:28:12.265Z,99069.17
2022-10-18T06:29:11.175Z,99064.2
2022-10-18T06:30:11.602Z,99065.05
2022-10-18T06:31:11.835Z,99068.66
2022-10-18T06:32:11.093Z,99073.41
2022-10-18T06:33:11.120Z,99069.05
2022-10-18T06:34:11.061Z,99075.27
2022-10-18T06:35:11.290Z,99077.15
2022-10-18T06:36:12.997Z,99073
2022-10-18T06:37:11.166Z,99079.67
2022-10-18T06:38:11.162Z,99084.42
2022-10-18T06:39:11.223Z,99088.41
2022-10-18T06:40:11.540Z,99081.77
2022-10-18T06:41:11.580Z,99078.05
2022-10-18T06:42:11.287Z,99079.2
2022-10-18T06:43:20.514Z,99086.91
2022-10-18T06:44:13.401Z,99093.7
2022-10-18T06:45:13.210Z,99089.1
2022-10-18T06:46:13.294Z,99097.72
2022-10-18T06:47:13.398Z,99095.12
2022-10-18T06:48:13.284Z,99105.11
2022-10-18T06:49:15.335Z,99091.55
2022-10-18T06:50:14.995Z,99096.68
2022-10-18T06:51:15.122Z,99096.27
2022-10-18T06:52:17.911Z,99103.91
2022-10-18T06:53:14.943Z,99098.99
2022-10-18T06:54:19.141Z,99097.95
2022-10-18T06:55:16.280Z,99101.41
2022-10-18T06:56:16.061Z,99109.25
2022-10-18T06:57:16.267Z,99114.2
2022-10-18T06:58:16.256Z,99108.89
2022-10-18T06:59:16.307Z,99118.9
2022-10-18T07:00:16.545Z,99117.73
2022-10-18T07:01:17.445Z,99118.34
2022-10-18T07:02:16.582Z,99131.2
2022-10-18T07:03:16.379Z,99118.66
2022-10-18T07:04:16.185Z,99119.73
2022-10-18T07:05:16.193Z,99128.3
2022-10-18T07:06:17.458Z,99130.36
2022-10-18T07:07:16.241Z,99132.84
2022-10-18T07:08:16.903Z,99139.35
2022-10-18T07:09:16.226Z,99137.43
2022-10-18T07:10:16.317Z,99134.73
2022-10-18T07:11:18.006Z,99131.55
2022-10-18T07:12:16.287Z,99137.58
2022-10-18T07:13:33.223Z,99141.27
2022-10-18T07:14:20.235Z,99139.64
2022-10-18T07:15:20.287Z,99157.45
2022-10-18T07:16:20.816Z,99148.16
2022-10-18T07:17:20.408Z,99162.62
2022-10-18T07:18:20.254Z,99164.11
2022-10-18T07:19:20.346Z,99144.76
2022-10-18T07:20:20.295Z,99178.48
2022-10-18T07:21:21.650Z,99165.94
2022-10-18T07:22:20.567Z,99161.58
2022-10-18T07:23:20.314Z,99159.39
2022-10-18T07:24:20.420Z,99160.64
2022-10-18T07:25:20.358Z,99172.76
2022-10-18T07:26:24.870Z,99168.02
2022-10-18T07:27:21.473Z,99167.36
2022-10-18T07:28:26.617Z,99164.8
2022-10-18T07:29:23.533Z,99167.84
2022-10-18T07:30:23.482Z,99161.09
2022-10-18T07:41:14.166Z,99191.76
2022-10-18T07:42:13.982Z,99183.55
2022-10-18T07:43:13.970Z,99190.23
2022-10-18T07:44:14.041Z,99200.77
2022-10-18T07:45:14.402Z,99193.19
2022-10-18T07:46:14.983Z,99193.72
2022-10-18T07:47:14.066Z,99199.28
2022-10-18T07:48:14.047Z,99200.47
2022-10-18T07:49:14.072Z,99190.88
2022-10-18T07:50:14.470Z,99202.44
2022-10-18T07:51:14.696Z,99198.29
2022-10-18T07:52:14.296Z,99206
2022-10-18T07:53:14.915Z,99205.91
2022-10-18T07:54:14.153Z,99201.55
2022-10-18T07:55:14.323Z,99198.72
2022-10-18T07:56:16.721Z,99208.6
2022-10-18T07:57:14.214Z,99216.16
2022-10-18T07:58:15.064Z,99206.45
2022-10-18T07:59:14.262Z,99214.38
2022-10-18T08:00:14.851Z,99210.89
2022-10-18T08:01:14.811Z,99213.7
2022-10-18T08:02:14.284Z,99220.33
2022-10-18T08:03:14.297Z,99212.41
2022-10-18T08:04:16.523Z,99222.2
2022-10-18T08:05:14.546Z,99220.8
2022-10-18T08:06:15.397Z,99218.54
2022-10-18T08:07:14.378Z,99219.98
2022-10-18T08:08:14.398Z,99223.62
2022-10-18T08:09:14.431Z,99222
2022-10-18T08:10:14.612Z,99224.94
2022-10-18T08:11:19.629Z,99227.09
2022-10-18T08:12:15.811Z,99225.59
2022-10-18T08:13:16.051Z,99233.92
2022-10-18T08:14:15.950Z,99241.22
2022-10-18T08:15:15.928Z,99243.29
2022-10-18T08:16:17.357Z,99229.06
2022-10-18T08:17:15.892Z,99240.97
2022-10-18T08:18:15.944Z,99227.28
2022-10-18T08:19:15.983Z,99239.12
2022-10-18T08:20:29.937Z,99230.45
2022-10-18T08:21:18.562Z,99230.16
2022-10-18T08:22:17.672Z,99240.48
2022-10-18T08:23:17.755Z,99232.58
2022-10-18T08:24:17.897Z,99235.42
2022-10-18T08:25:17.836Z,99236.52
2022-10-18T08:26:19.197Z,99227.83
2022-10-18T08:27:17.842Z,99232.06
2022-10-18T08:28:17.891Z,99246.53
2022-10-18T08:29:23.871Z,99237.81
2022-10-18T08:30:22.635Z,99241.05
2022-10-18T08:31:22.755Z,99239.56
2022-10-18T08:32:22.723Z,99239.68
2022-10-18T08:33:22.788Z,99236.11
2022-10-18T08:34:22.705Z,99242.19
2022-10-18T08:35:22.632Z,99244.7
2022-10-18T08:36:23.100Z,99247.98
2022-10-18T08:37:22.794Z,99242.86
2022-10-18T08:38:23.298Z,99250.23
2022-10-18T08:39:22.646Z,99246.66
2022-10-18T08:40:22.951Z,99254.3
2022-10-18T08:44:31.657Z,99246.47
2022-10-18T08:45:41.931Z,99243.92
2022-10-18T08:46:34.827Z,99253.36
2022-10-18T08:47:35.402Z,99261.95
2022-10-18T08:48:39.955Z,99262.16
2022-10-18T08:49:42.935Z,99250.7
2022-10-18T08:50:37.123Z,99256.84
2022-10-18T08:51:45.241Z,99255.28
2022-10-18T08:53:55.372Z,99261.15
2022-10-18T08:55:00.282Z,99256.21
2022-10-18T08:55:57.647Z,99264.08
2022-10-18T08:56:58.499Z,99261.37
2022-10-18T08:57:57.413Z,99257.58
2022-10-18T08:58:55.303Z,99263.36
2022-10-18T08:59:55.412Z,99265.66
2022-10-18T09:26:06.542Z,99268.91
2022-10-18T09:27:11.990Z,99276.28
2022-10-18T09:31:18.948Z,99267.3
2022-10-18T09:35:25.207Z,99272.47
2022-10-18T09:36:30.785Z,99274.19
2022-10-18T09:37:28.993Z,99276.12
2022-10-18T09:38:32.313Z,99276.48
2022-10-18T09:39:31.008Z,99280.7
2022-10-18T09:40:30.799Z,99282.45
2022-10-18T09:41:33.581Z,99283.16
2022-10-18T09:42:34.664Z,99278.66
2022-10-18T09:45:41.353Z,99277.28
2022-10-18T09:46:39.674Z,99277.46
2022-10-18T09:47:40.038Z,99280.75
2022-10-18T09:48:46.583Z,99267.82
2022-10-18T09:49:44.251Z,99279
2022-10-18T09:51:42.397Z,99276.47
2022-10-18T09:54:53.800Z,99284.03
2022-10-18T09:57:57.059Z,99279.11
2022-10-18T09:58:54.270Z,99283.25
2022-10-18T09:59:54.349Z,99286.22
2022-10-18T10:00:55.419Z,99287.57
2022-10-18T10:01:54.605Z,99285.35
2022-10-18T10:02:54.698Z,99287.73
2022-10-18T10:03:54.600Z,99289.17
2022-10-18T10:04:54.644Z,99275.48
2022-10-18T10:06:59.260Z,99281.38
2022-10-18T10:07:57.722Z,99274.47
2022-10-18T10:10:13.654Z,99276.44
2022-10-18T10:11:05.266Z,99285.5
2022-10-18T10:12:05.598Z,99297.17
2022-10-18T10:13:06.969Z,99284.98
2022-10-18T10:16:09.517Z,99296.58
2022-10-18T10:19:22.242Z,99286.98
2022-10-18T10:20:20.286Z,99286.58
2022-10-18T10:21:19.682Z,99293.02
2022-10-18T10:22:26.011Z,99287.19
2022-10-18T10:23:24.732Z,99285.14
2022-10-18T10:25:32.520Z,99291.62
2022-10-18T10:26:33.182Z,99286.12
2022-10-18T10:27:34.668Z,99289.23
2022-10-18T10:28:34.760Z,99296.64
2022-10-18T10:30:36.910Z,99299.03
2022-10-18T10:31:35.962Z,99300.48
2022-10-18T10:32:46.196Z,99293.66
2022-10-18T10:33:38.628Z,99292.02
2022-10-18T10:34:41.001Z,99294.76
2022-10-18T10:35:53.070Z,99295.97
2022-10-18T10:36:47.490Z,99294.16
2022-10-18T10:37:50.425Z,99300.7
2022-10-18T10:40:50.188Z,99300.98
2022-10-18T10:43:56.309Z,99305.03
2022-10-18T10:44:55.911Z,99300.73
2022-10-18T10:46:56.716Z,99304.19
2022-10-18T10:49:27.772Z,99309.36
2022-10-18T10:54:17.083Z,99296.42
2022-10-18T10:55:34.969Z,99298.36
2022-10-18T10:56:20.580Z,99301.39
2022-10-18T10:58:18.764Z,99315.62
2022-10-18T10:59:19.942Z,99307.77
2022-10-18T11:01:24.165Z,99310.99
2022-10-18T11:02:26.120Z,99300.83
2022-10-18T11:03:28.972Z,99303.23
2022-10-18T11:04:29.879Z,99299.51
2022-10-18T11:05:27.314Z,99300.97
2022-10-18T11:07:40.743Z,99300.02
2022-10-18T11:08:40.871Z,99304.72
2022-10-18T11:10:38.976Z,99300.7
2022-10-18T11:11:39.075Z,99291.12
2022-10-18T11:14:45.639Z,99295.12
2022-10-18T11:15:46.988Z,99307.16
2022-10-18T11:18:49.184Z,99307.81
2022-10-18T11:20:56.251Z,99314.38
2022-10-18T11:21:53.912Z,99305.8
2022-10-18T11:23:00.734Z,99302.16
2022-10-18T11:23:57.622Z,99318.5
2022-10-18T11:24:57.396Z,99324.01
2022-10-18T11:41:37.261Z,99326.38
2022-10-18T11:42:40.096Z,99332.92
2022-10-18T11:57:22.897Z,99339.03
2022-10-18T12:04:53.064Z,99338.35
2022-10-18T12:05:38.867Z,99343.77
2022-10-18T12:06:39.565Z,99350.34
2022-10-18T12:07:42.145Z,99341.14
2022-10-18T12:08:46.868Z,99342.37
2022-10-18T12:09:45.463Z,99349.08
2022-10-18T12:11:03.988Z,99353.23
2022-10-18T12:11:52.297Z,99354.03
2022-10-18T12:12:55.890Z,99351.09
2022-10-18T12:14:56.333Z,99350.02
2022-10-18T12:15:53.963Z,99353.19
2022-10-18T12:17:13.554Z,99350.92
2022-10-18T12:17:58.096Z,99351.77
2022-10-18T12:18:57.688Z,99354.67
2022-10-18T12:19:56.858Z,99350.45
2022-10-18T12:20:57.342Z,99348.12
2022-10-18T12:23:01.396Z,99353.59
2022-10-18T12:25:01.774Z,99360.88
2022-10-18T12:26:06.137Z,99358.68
2022-10-18T12:27:02.538Z,99353.84
2022-10-18T12:29:15.062Z,99355.39
2022-10-18T12:32:19.864Z,99357.92
2022-10-18T12:33:27.746Z,99357.69
2022-10-18T12:34:27.186Z,99362.09
2022-10-18T12:35:19.033Z,99367.81
2022-10-18T12:36:28.942Z,99365.14
2022-10-18T12:38:27.823Z,99364.3
2022-10-18T12:39:38.776Z,99367.06
2022-10-18T12:41:28.593Z,99358.86
2022-10-18T12:42:28.380Z,99363.9
2022-10-18T12:43:28.589Z,99362.09
2022-10-18T12:45:31.530Z,99359.75
2022-10-18T12:47:34.028Z,99364.2
2022-10-18T12:48:37.997Z,99363.9
2022-10-18T12:49:35.773Z,99360.44
2022-10-18T12:50:38.866Z,99366.49
2022-10-18T12:51:35.540Z,99367.09
2022-10-18T12:52:35.732Z,99368.39
2022-10-18T12:53:35.948Z,99363.83
2022-10-18T12:54:37.054Z,99363.59
2022-10-18T12:55:37.282Z,99365.41
2022-10-18T12:56:41.899Z,99360.18
2022-10-18T12:58:39.677Z,99361.06
2022-10-18T12:59:40.465Z,99362.14
2022-10-18T13:02:44.025Z,99360.3
2022-10-18T13:03:51.791Z,99364.72
2022-10-18T13:04:48.850Z,99359.98
2022-10-18T13:06:01.613Z,99356.96
2022-10-18T13:07:49.599Z,99365.72
2022-10-18T13:20:26.775Z,99353.7
2022-10-18T13:22:35.111Z,99349.93
2022-10-18T13:23:38.666Z,99350.99
2022-10-18T13:24:33.843Z,99352.06
2022-10-18T13:28:42.739Z,99355.45
2022-10-18T13:31:51.790Z,99357.2
2022-10-18T13:33:49.607Z,99360.02
2022-10-18T13:34:49.675Z,99361.44
2022-10-18T13:37:58.662Z,99358.64
2022-10-18T13:39:01.982Z,99355.94
2022-10-18T13:44:11.046Z,99353.85
2022-10-18T13:46:10.777Z,99353.73
2022-10-18T13:47:14.382Z,99354.68
2022-10-18T13:58:49.119Z,99345.12
2022-10-18T14:07:04.745Z,99353.45
2022-10-18T14:13:20.762Z,99345.86
2022-10-18T14:15:24.088Z,99347.61
2022-10-18T14:18:30.047Z,99351.42
2022-10-18T14:21:35.299Z,99345.88
2022-10-18T14:23:36.893Z,99336.79
2022-10-18T14:24:35.030Z,99342.38
2022-10-18T14:25:35.821Z,99338.5
2022-10-18T14:26:34.915Z,99336.72
2022-10-18T14:27:35.257Z,99332.31
2022-10-18T14:28:55.149Z,99336.03
2022-10-18T14:29:36.094Z,99333.83
2022-10-18T14:30:36.702Z,99330.69
2022-10-18T14:31:36.071Z,99335.33
2022-10-18T14:32:36.262Z,99334.97
2022-10-18T14:33:37.216Z,99332.68
2022-10-18T14:34:36.331Z,99328.7
2022-10-18T14:35:36.111Z,99330.31
2022-10-18T14:36:39.567Z,99337.29
2022-10-18T14:37:36.446Z,99336.12
2022-10-18T14:38:37.122Z,99339.77
2022-10-18T14:39:38.236Z,99340.58
2022-10-18T14:40:39.744Z,99350.23
2022-10-18T14:41:37.168Z,99345.5
2022-10-18T14:42:36.196Z,99343.44
2022-10-18T14:43:36.180Z,99343.53
2022-10-18T14:44:36.190Z,99341.88
2022-10-18T14:45:36.218Z,99341.85
2022-10-18T14:47:37.521Z,99347.03
2022-10-18T14:48:37.477Z,99347.22
2022-10-18T14:50:38.659Z,99340.59
2022-10-18T14:51:40.257Z,99344.64
2022-10-18T14:52:38.750Z,99347.22
2022-10-18T14:53:39.894Z,99348.23
2022-10-18T14:54:39.358Z,99346.44
2022-10-18T14:55:38.806Z,99340.69
2022-10-18T14:56:41.330Z,99334.18
2022-10-18T14:57:39.027Z,99341.34
2022-10-18T14:58:41.232Z,99337.67
2022-10-18T15:00:43.909Z,99343.53
2022-10-18T15:02:47.485Z,99333.25
2022-10-18T15:03:47.823Z,99335.17
2022-10-18T15:05:54.688Z,99337.59
2022-10-18T15:06:50.912Z,99341.31
2022-10-18T15:07:51.870Z,99335.71
2022-10-18T15:08:53.608Z,99336.73
2022-10-18T15:09:51.358Z,99335.83
2022-10-18T15:10:51.362Z,99333.39
2022-10-18T15:11:51.371Z,99333.94
2022-10-18T15:13:08.662Z,99340.95
2022-10-18T15:14:04.706Z,99328.33
2022-10-18T15:15:00.246Z,99335.39
2022-10-18T15:15:57.234Z,99338.95
2022-10-18T15:17:04.566Z,99340.73
2022-10-18T15:18:01.576Z,99340.44
2022-10-18T15:24:21.565Z,99352.69
2022-10-18T15:25:21.965Z,99351
2022-10-18T15:26:26.453Z,99351.66
2022-10-18T15:27:28.681Z,99346.86
2022-10-18T15:28:30.693Z,99349.86
2022-10-18T15:29:27.103Z,99351.19
2022-10-18T15:31:38.697Z,99344.18
2022-10-18T15:32:35.746Z,99352.58
2022-10-18T15:33:35.520Z,99355.42
2022-10-18T15:34:35.575Z,99351.53
2022-10-18T15:35:36.815Z,99353.41
2022-10-18T15:36:35.704Z,99364.03
2022-10-18T15:37:41.112Z,99359.35
2022-10-18T15:38:38.395Z,99360.62
2022-10-18T15:39:37.761Z,99361.09
2022-10-18T15:40:38.535Z,99360.53
2022-10-18T15:41:39.691Z,99362.92
2022-10-18T15:42:37.850Z,99362.08
2022-10-18T15:43:37.943Z,99358.77
2022-10-18T15:44:50.724Z,99354.09
2022-10-18T15:46:42.612Z,99358.02
2022-10-18T15:47:56.850Z,99359.91
2022-10-18T15:48:43.529Z,99366.47
2022-10-18T15:50:55.461Z,99359.78
2022-10-18T15:52:55.635Z,99356.28
2022-10-18T15:53:55.136Z,99358.91